createdAt,value
2023-04-18T00:00:16.408Z,6.0615
2023-04-18T00:01:18.055Z,6.7769
2023-04-18T00:02:19.875Z,5.9462
2023-04-18T00:03:21.561Z,6.0308
2023-04-18T00:04:23.266Z,6.0692
2023-04-18T00:05:24.812Z,5.8923
2023-04-18T00:06:26.292Z,5.9615
2023-04-18T00:07:27.932Z,6.6538
2023-04-18T00:08:29.625Z,6.3462
2023-04-18T00:09:31.262Z,6.0846
2023-04-18T00:10:32.939Z,5.9615
2023-04-18T00:11:34.542Z,6.0923
2023-04-18T00:12:36.184Z,5.5692
2023-04-18T00:13:37.836Z,6.0923
2023-04-18T00:14:39.454Z,6.1692
2023-04-18T00:15:41.094Z,6.0923
2023-04-18T00:16:42.752Z,6.1462
2023-04-18T00:17:44.445Z,6.5846
2023-04-18T00:18:46.157Z,6.5308
2023-04-18T00:19:47.737Z,6.0462
2023-04-18T00:20:49.452Z,6.2692
2023-04-18T00:21:51.015Z,5.8615
2023-04-18T00:22:52.689Z,5.7385
2023-04-18T00:23:54.391Z,6.0538
2023-04-18T00:24:56.014Z,6.2462
2023-04-18T00:25:57.643Z,5.8154
2023-04-18T00:26:59.250Z,5.2538
2023-04-18T00:28:00.975Z,6.0077
2023-04-18T00:29:02.618Z,5.8077
2023-04-18T00:30:04.210Z,6.0615
2023-04-18T00:31:05.830Z,6.2692
2023-04-18T00:32:07.413Z,5.9231
2023-04-18T00:33:09.044Z,6.2000
2023-04-18T00:34:10.728Z,6.3615
2023-04-18T00:35:12.401Z,7.4462
2023-04-18T00:36:14.004Z,6.4923
2023-04-18T00:37:15.624Z,5.8231
2023-04-18T00:38:17.294Z,5.8615
2023-04-18T00:39:18.945Z,5.9077
2023-04-18T00:40:20.578Z,6.3923
2023-04-18T00:41:22.234Z,5.7692
2023-04-18T00:42:23.870Z,6.2615
2023-04-18T00:43:25.514Z,5.8077
2023-04-18T00:44:27.171Z,6.6000
2023-04-18T00:45:28.794Z,6.7692
2023-04-18T00:46:30.553Z,6.4538
2023-04-18T00:47:32.120Z,6.3154
2023-04-18T00:48:33.732Z,6.2231
2023-04-18T00:49:35.421Z,6.0154
2023-04-18T00:50:37.021Z,6.0154
2023-04-18T00:51:38.675Z,7.0231
2023-04-18T00:52:40.315Z,6.5538
2023-04-18T00:53:42.005Z,6.5385
2023-04-18T00:54:43.638Z,6.6077
2023-04-18T00:55:45.244Z,6.2615
2023-04-18T00:56:46.905Z,6.5769
2023-04-18T00:57:48.513Z,6.4000
2023-04-18T00:58:50.157Z,5.7462
2023-04-18T00:59:51.832Z,6.9308
2023-04-18T01:00:53.454Z,5.9692
2023-04-18T01:01:55.232Z,6.5385
2023-04-18T01:02:56.860Z,6.0231
2023-04-18T01:03:58.527Z,6.1615
2023-04-18T01:05:00.060Z,6.0000
2023-04-18T01:06:02.666Z,5.7308
2023-04-18T01:07:03.373Z,5.8692
2023-04-18T01:08:05.062Z,6.5077
2023-04-18T01:09:06.589Z,7.2538
2023-04-18T01:10:08.276Z,6.7000
2023-04-18T01:11:09.881Z,6.0769
2023-04-18T01:12:11.521Z,6.0385
2023-04-18T01:13:13.160Z,7.6000
2023-04-18T01:14:15.093Z,6.1615
2023-04-18T01:15:16.455Z,6.3769
2023-04-18T01:16:18.105Z,6.3769
2023-04-18T01:17:19.757Z,5.9077
2023-04-18T01:18:21.385Z,6.1769
2023-04-18T01:19:23.025Z,5.7538
2023-04-18T01:20:24.689Z,6.0538
2023-04-18T01:21:26.286Z,6.7077
2023-04-18T01:22:27.931Z,6.2615
2023-04-18T01:23:29.588Z,6.0000
2023-04-18T01:24:31.242Z,6.4769
2023-04-18T01:25:32.890Z,6.3692
2023-04-18T01:26:34.482Z,6.5538
2023-04-18T01:27:36.142Z,6.9231
2023-04-18T01:28:37.809Z,7.4231
2023-04-18T01:29:39.457Z,7.4308
2023-04-18T01:30:41.060Z,7.6385
2023-04-18T01:31:42.899Z,7.0231
2023-04-18T01:32:44.489Z,6.9077
2023-04-18T01:33:46.118Z,7.0615
2023-04-18T01:34:47.773Z,6.6846
2023-04-18T01:35:49.385Z,6.4846
2023-04-18T01:36:51.035Z,6.1846
2023-04-18T01:37:52.665Z,6.2308
2023-04-18T01:38:54.301Z,6.4846
2023-04-18T01:39:55.989Z,6.7538
2023-04-18T01:40:57.581Z,6.8000
2023-04-18T01:41:59.222Z,7.1923
2023-04-18T01:43:00.890Z,6.8231
2023-04-18T01:44:02.538Z,6.7231
2023-04-18T01:45:04.208Z,6.3077
2023-04-18T01:46:05.848Z,6.1308
2023-04-18T01:47:07.466Z,6.3385
2023-04-18T01:48:09.139Z,6.5846
2023-04-18T01:49:10.775Z,7.4923
2023-04-18T01:50:12.480Z,7.3923
2023-04-18T01:51:14.023Z,8.0231
2023-04-18T01:52:15.900Z,7.0308
2023-04-18T01:53:17.337Z,6.8462
2023-04-18T01:54:18.999Z,6.9615
2023-04-18T01:55:20.684Z,7.0692
2023-04-18T01:56:22.265Z,6.8846
2023-04-18T01:57:23.920Z,6.9692
2023-04-18T01:58:25.576Z,7.3385
2023-04-18T01:59:27.238Z,7.5000
2023-04-18T02:00:28.920Z,7.9000
2023-04-18T02:01:30.513Z,7.0385
2023-04-18T02:02:32.380Z,6.7923
2023-04-18T02:03:34.074Z,7.3769
2023-04-18T02:04:35.560Z,8.2538
2023-04-18T02:05:37.242Z,7.4462
2023-04-18T02:06:38.810Z,7.9000
2023-04-18T02:07:40.492Z,7.3077
2023-04-18T02:08:42.119Z,8.4000
2023-04-18T02:09:43.813Z,7.9385
2023-04-18T02:10:45.434Z,8.9538
2023-04-18T02:11:47.106Z,8.9077
2023-04-18T02:12:48.697Z,11.5308
2023-04-18T02:13:50.335Z,7.2692
2023-04-18T02:14:51.970Z,8.0000
2023-04-18T02:15:53.634Z,7.9615
2023-04-18T02:16:55.362Z,8.1538
2023-04-18T02:17:56.947Z,8.5846
2023-04-18T02:18:58.615Z,9.1692
2023-04-18T02:20:00.193Z,8.3615
2023-04-18T02:21:01.877Z,7.8923
2023-04-18T02:22:03.451Z,7.6923
2023-04-18T02:23:05.109Z,7.3615
2023-04-18T02:24:06.738Z,7.9308
2023-04-18T02:25:08.384Z,8.2077
2023-04-18T02:26:10.107Z,8.0846
2023-04-18T02:27:11.716Z,8.3462
2023-04-18T02:28:13.291Z,8.3692
2023-04-18T02:29:14.942Z,7.6231
2023-04-18T02:30:16.692Z,7.6538
2023-04-18T02:31:18.317Z,7.4923
2023-04-18T02:32:19.912Z,9.0000
2023-04-18T02:33:21.539Z,7.5154
2023-04-18T02:34:23.256Z,7.7385
2023-04-18T02:35:24.845Z,8.7538
2023-04-18T02:36:26.514Z,7.7538
2023-04-18T02:37:28.112Z,7.7308
2023-04-18T02:38:29.828Z,8.1077
2023-04-18T02:39:31.416Z,8.1077
2023-04-18T02:40:33.030Z,8.2769
2023-04-18T02:41:34.767Z,8.5385
2023-04-18T02:42:36.346Z,8.0692
2023-04-18T02:43:38.054Z,8.9385
2023-04-18T02:44:39.616Z,8.0538
2023-04-18T02:45:41.431Z,7.7538
2023-04-18T02:46:42.879Z,8.1769
2023-04-18T02:47:54.785Z,9.4769
2023-04-18T02:48:46.118Z,8.3615
2023-04-18T02:49:47.764Z,8.9000
2023-04-18T02:50:49.396Z,8.1923
2023-04-18T02:51:51.071Z,8.4692
2023-04-18T02:52:52.650Z,10.1462
2023-04-18T02:53:54.295Z,9.2308
2023-04-18T02:54:55.983Z,8.0308
2023-04-18T02:55:57.592Z,8.7769
2023-04-18T02:56:59.269Z,8.9692
2023-04-18T02:58:00.884Z,8.5077
2023-04-18T02:59:02.506Z,9.1846
2023-04-18T03:00:04.182Z,9.2923
2023-04-18T03:01:05.875Z,8.8923
2023-04-18T03:02:07.440Z,8.7385
2023-04-18T03:03:09.140Z,9.8615
2023-04-18T03:04:10.748Z,9.7154
2023-04-18T03:05:12.495Z,9.0923
2023-04-18T03:06:14.084Z,9.2231
2023-04-18T03:07:15.687Z,9.6231
2023-04-18T03:08:17.335Z,9.9462
2023-04-18T03:09:18.971Z,12.6231
2023-04-18T03:10:20.590Z,8.5308
2023-04-18T03:11:22.291Z,9.9154
2023-04-18T03:12:23.948Z,8.9231
2023-04-18T03:13:25.551Z,8.6231
2023-04-18T03:14:27.235Z,9.7692
2023-04-18T03:15:28.874Z,8.9231
2023-04-18T03:16:30.571Z,9.3231
2023-04-18T03:17:32.194Z,9.5308
2023-04-18T03:18:33.969Z,9.4615
2023-04-18T03:19:35.435Z,9.9154
2023-04-18T03:20:37.104Z,9.3692
2023-04-18T03:21:38.762Z,10.6538
2023-04-18T03:22:40.353Z,10.2769
2023-04-18T03:23:42.019Z,9.3615
2023-04-18T03:24:43.635Z,10.2000
2023-04-18T03:25:45.299Z,9.4077
2023-04-18T03:26:46.954Z,9.8154
2023-04-18T03:27:48.580Z,10.4308
2023-04-18T03:28:50.219Z,10.1692
2023-04-18T03:29:51.844Z,9.7538
2023-04-18T03:30:53.596Z,10.0154
2023-04-18T03:31:55.163Z,9.3769
2023-04-18T03:32:57.015Z,9.8000
2023-04-18T03:33:58.433Z,9.7923
2023-04-18T03:35:00.055Z,10.2000
2023-04-18T03:36:01.695Z,8.8000
2023-04-18T03:37:03.392Z,10.4846
2023-04-18T03:38:04.975Z,9.6846
2023-04-18T03:39:06.616Z,9.9462
2023-04-18T03:40:08.234Z,10.9154
2023-04-18T03:41:09.895Z,9.3308
2023-04-18T03:42:11.590Z,10.1231
2023-04-18T03:43:13.178Z,9.9846
2023-04-18T03:44:15.068Z,10.3154
2023-04-18T03:45:16.458Z,9.6077
2023-04-18T03:46:18.124Z,11.3000
2023-04-18T03:47:20.078Z,10.3000
2023-04-18T03:48:21.422Z,9.7308
2023-04-18T03:49:23.052Z,10.1769
2023-04-18T03:50:24.683Z,9.9692
2023-04-18T03:51:26.330Z,10.7000
2023-04-18T03:52:29.700Z,10.8923
2023-04-18T03:53:29.655Z,10.4462
2023-04-18T03:54:31.280Z,10.2615
2023-04-18T03:55:32.904Z,11.3538
2023-04-18T03:56:34.539Z,9.5769
2023-04-18T03:57:36.196Z,9.6385
2023-04-18T03:58:37.855Z,9.8308
2023-04-18T03:59:39.481Z,10.6385
2023-04-18T04:00:41.140Z,10.5538
2023-04-18T04:01:42.950Z,9.6615
2023-04-18T04:02:44.582Z,9.8462
2023-04-18T04:03:46.238Z,9.8231
2023-04-18T04:04:48.012Z,10.2769
2023-04-18T04:05:49.343Z,10.0000
2023-04-18T04:06:50.979Z,10.3462
2023-04-18T04:07:52.622Z,10.9385
2023-04-18T04:08:54.318Z,10.2385
2023-04-18T04:09:55.947Z,10.0077
2023-04-18T04:10:57.578Z,10.0385
2023-04-18T04:11:59.239Z,9.9000
2023-04-18T04:13:00.821Z,11.0615
2023-04-18T04:14:02.521Z,12.7154
2023-04-18T04:15:04.140Z,10.6154
2023-04-18T04:16:05.863Z,15.6308
2023-04-18T04:17:07.407Z,11.0692
2023-04-18T04:18:09.144Z,10.4000
2023-04-18T04:19:10.740Z,10.9000
2023-04-18T04:20:12.367Z,10.8846
2023-04-18T04:21:14.031Z,10.6077
2023-04-18T04:22:15.671Z,10.1385
2023-04-18T04:23:17.314Z,10.3077
2023-04-18T04:24:18.985Z,10.6923
2023-04-18T04:25:20.582Z,11.2538
2023-04-18T04:26:22.263Z,11.3538
2023-04-18T04:27:23.843Z,10.8846
2023-04-18T04:28:25.622Z,10.6923
2023-04-18T04:29:27.176Z,10.7538
2023-04-18T04:30:28.800Z,10.5385
2023-04-18T04:31:30.509Z,10.4308
2023-04-18T04:32:32.133Z,10.2615
2023-04-18T04:33:33.773Z,11.6154
2023-04-18T04:34:35.434Z,11.2000
2023-04-18T04:35:37.027Z,10.5000
2023-04-18T04:36:38.675Z,10.7538
2023-04-18T04:37:40.297Z,10.5308
2023-04-18T04:38:41.954Z,10.3462
2023-04-18T04:39:43.658Z,12.0000
2023-04-18T04:40:45.236Z,10.1385
2023-04-18T04:41:46.883Z,10.6000
2023-04-18T04:42:48.543Z,11.4385
2023-04-18T04:43:50.197Z,9.9000
2023-04-18T04:44:51.901Z,10.9308
2023-04-18T04:45:53.536Z,10.3462
2023-04-18T04:46:55.137Z,10.4000
2023-04-18T04:47:56.747Z,10.1615
2023-04-18T04:48:58.493Z,10.1385
2023-04-18T04:50:00.025Z,10.2615
2023-04-18T04:51:01.699Z,10.1615
2023-04-18T04:52:03.375Z,10.6385
2023-04-18T04:53:04.980Z,10.3692
2023-04-18T04:54:06.592Z,11.0231
2023-04-18T04:55:08.283Z,10.6077
2023-04-18T04:56:09.918Z,12.7077
2023-04-18T04:57:11.561Z,11.1923
2023-04-18T04:58:13.202Z,10.6154
2023-04-18T04:59:14.872Z,11.3462
2023-04-18T05:00:16.490Z,10.9462
2023-04-18T05:01:18.166Z,11.8308
2023-04-18T05:02:19.831Z,10.9000
2023-04-18T05:03:21.522Z,10.7462
2023-04-18T05:04:23.257Z,11.7000
2023-04-18T05:05:24.676Z,11.9077
2023-04-18T05:06:26.349Z,11.9769
2023-04-18T05:07:27.995Z,11.7000
2023-04-18T05:08:29.594Z,10.6154
2023-04-18T05:09:31.318Z,11.1154
2023-04-18T05:10:32.901Z,11.7615
2023-04-18T05:11:34.612Z,11.7462
2023-04-18T05:12:36.191Z,12.8615
2023-04-18T05:13:37.833Z,11.5308
2023-04-18T05:14:39.524Z,10.8308
2023-04-18T05:15:41.269Z,11.6846
2023-04-18T05:16:42.799Z,11.6154
2023-04-18T05:17:44.468Z,12.6692
2023-04-18T05:18:46.059Z,11.5462
2023-04-18T05:19:47.750Z,12.7385
2023-04-18T05:20:49.326Z,13.0000
2023-04-18T05:21:51.137Z,11.4308
2023-04-18T05:22:52.589Z,14.7692
2023-04-18T05:23:54.278Z,13.0385
2023-04-18T05:24:55.912Z,12.4538
2023-04-18T05:25:57.564Z,11.5769
2023-04-18T05:26:59.176Z,12.5154
2023-04-18T05:28:00.840Z,12.1923
2023-04-18T05:29:02.455Z,11.5308
2023-04-18T05:30:04.179Z,12.3615
2023-04-18T05:31:05.769Z,12.5538
2023-04-18T05:32:07.398Z,10.6231
2023-04-18T05:33:09.026Z,11.0538
2023-04-18T05:34:10.664Z,11.6615
2023-04-18T05:35:12.386Z,11.6846
2023-04-18T05:36:13.999Z,11.5462
2023-04-18T05:37:15.652Z,12.1692
2023-04-18T05:38:17.279Z,12.0077
2023-04-18T05:39:18.957Z,13.8077
2023-04-18T05:40:20.601Z,11.3538
2023-04-18T05:41:22.224Z,10.7154
2023-04-18T05:42:23.886Z,11.9615
2023-04-18T05:43:25.514Z,11.0231
2023-04-18T05:44:27.161Z,28.2923
2023-04-18T05:45:28.929Z,29.4538
2023-04-18T05:46:31.199Z,37.3923
2023-04-18T05:47:32.210Z,21.7769
2023-04-18T05:48:33.821Z,13.4692
2023-04-18T05:49:35.497Z,17.5231
2023-04-18T05:50:37.171Z,19.1692
2023-04-18T05:51:38.765Z,10.8385
2023-04-18T05:52:40.393Z,16.8308
2023-04-18T05:53:42.060Z,23.2615
2023-04-18T05:54:43.763Z,36.6538
2023-04-18T05:55:45.408Z,19.4615
2023-04-18T05:56:47.034Z,12.6154
2023-04-18T05:57:48.624Z,22.4231
2023-04-18T05:58:50.274Z,15.3000
2023-04-18T05:59:51.907Z,11.4846
2023-04-18T06:00:53.630Z,13.6462
2023-04-18T06:01:55.274Z,12.9923
2023-04-18T06:02:57.056Z,11.4231
2023-04-18T06:03:58.640Z,12.7077
2023-04-18T06:05:00.436Z,23.3077
2023-04-18T06:06:01.972Z,16.5769
2023-04-18T06:07:03.440Z,28.8385
2023-04-18T06:08:05.098Z,22.5923
2023-04-18T06:09:06.739Z,33.5000
2023-04-18T06:10:08.384Z,17.0385
2023-04-18T06:11:10.149Z,15.5308
2023-04-18T06:12:11.772Z,24.0769
2023-04-18T06:13:13.312Z,11.6923
2023-04-18T06:14:15.483Z,14.3692
2023-04-18T06:15:16.582Z,17.6000
2023-04-18T06:16:18.338Z,12.2538
2023-04-18T06:17:19.834Z,11.7154
2023-04-18T06:18:21.506Z,13.1385
2023-04-18T06:19:23.193Z,13.7462
2023-04-18T06:20:24.781Z,15.4308
2023-04-18T06:21:26.502Z,15.3923
2023-04-18T06:22:28.051Z,12.9077
2023-04-18T06:23:29.919Z,13.4846
2023-04-18T06:24:31.402Z,12.8692
2023-04-18T06:25:33.020Z,14.2846
2023-04-18T06:26:34.771Z,13.6538
2023-04-18T06:27:36.305Z,12.5923
2023-04-18T06:28:37.973Z,10.9615
2023-04-18T06:29:39.588Z,12.4538
2023-04-18T06:30:41.237Z,12.9769
2023-04-18T06:31:42.998Z,13.5385
2023-04-18T06:32:44.557Z,12.0231
2023-04-18T06:33:46.209Z,11.9308
2023-04-18T06:34:47.779Z,11.4923
2023-04-18T06:35:49.475Z,11.6077
2023-04-18T06:36:51.208Z,12.5231
2023-04-18T06:37:52.628Z,28.3077
2023-04-18T06:38:54.315Z,19.6462
2023-04-18T06:39:55.944Z,18.8538
2023-04-18T06:40:57.570Z,14.8231
2023-04-18T06:41:59.247Z,14.8692
2023-04-18T06:43:00.853Z,15.2923
2023-04-18T06:44:04.464Z,14.6615
2023-04-18T06:45:04.126Z,12.4769
2023-04-18T06:46:05.867Z,16.0231
2023-04-18T06:47:07.428Z,12.8923
2023-04-18T06:48:09.166Z,12.7231
2023-04-18T06:49:10.724Z,15.1077
2023-04-18T06:50:12.338Z,14.3769
2023-04-18T06:51:13.960Z,14.9000
2023-04-18T06:52:15.660Z,15.6615
2023-04-18T06:53:17.265Z,19.8846
2023-04-18T06:54:18.907Z,51.2615
2023-04-18T06:55:20.530Z,28.1846
2023-04-18T06:56:22.184Z,19.0077
2023-04-18T06:57:23.847Z,16.7154
2023-04-18T06:58:25.456Z,14.2077
2023-04-18T06:59:27.143Z,15.2154
2023-04-18T07:00:28.857Z,15.1538
2023-04-18T07:01:30.461Z,13.3154
2023-04-18T07:02:32.168Z,15.0462
2023-04-18T07:03:33.800Z,13.3615
2023-04-18T07:04:35.338Z,14.6154
2023-04-18T07:05:36.972Z,15.4308
2023-04-18T07:06:38.605Z,12.9231
2023-04-18T07:07:40.298Z,14.4231
2023-04-18T07:08:41.917Z,13.4692
2023-04-18T07:09:43.534Z,14.2000
2023-04-18T07:10:45.152Z,16.9615
2023-04-18T07:11:46.835Z,14.8231
2023-04-18T07:12:48.521Z,14.8538
2023-04-18T07:13:50.132Z,15.2846
2023-04-18T07:14:51.729Z,15.3923
2023-04-18T07:15:53.407Z,14.3154
2023-04-18T07:16:55.052Z,14.9077
2023-04-18T07:17:56.742Z,16.1308
2023-04-18T07:18:58.318Z,22.1462
2023-04-18T07:19:59.945Z,18.8462
2023-04-18T07:21:01.572Z,15.7077
2023-04-18T07:22:03.215Z,14.7846
2023-04-18T07:23:04.882Z,15.4231
2023-04-18T07:24:06.541Z,16.3846
2023-04-18T07:25:08.163Z,18.8385
2023-04-18T07:26:09.793Z,17.1077
2023-04-18T07:27:11.478Z,22.6000
2023-04-18T07:28:13.147Z,18.2462
2023-04-18T07:29:14.768Z,15.8692
2023-04-18T07:30:16.357Z,15.3769
2023-04-18T07:31:18.064Z,15.5923
2023-04-18T07:32:19.681Z,18.1000
2023-04-18T07:33:21.348Z,14.7231
2023-04-18T07:34:23.008Z,15.9692
2023-04-18T07:35:24.553Z,17.6231
2023-04-18T07:36:26.317Z,15.3923
2023-04-18T07:37:27.931Z,16.1615
2023-04-18T07:38:29.576Z,16.4769
2023-04-18T07:39:31.169Z,16.6923
2023-04-18T07:40:32.781Z,16.6385
2023-04-18T07:41:34.446Z,18.3000
2023-04-18T07:42:36.072Z,16.9846
2023-04-18T07:43:37.774Z,17.1154
2023-04-18T07:44:39.328Z,16.6538
2023-04-18T07:45:41.032Z,16.4154
2023-04-18T07:46:42.736Z,15.4923
2023-04-18T07:47:44.340Z,15.6692
2023-04-18T07:48:45.946Z,17.6615
2023-04-18T07:49:47.555Z,17.9538
2023-04-18T07:50:49.207Z,24.9538
2023-04-18T07:51:50.856Z,193.6385
2023-04-18T07:52:52.472Z,87.5000
2023-04-18T07:53:54.158Z,125.6923
2023-04-18T07:54:55.772Z,69.4231
2023-04-18T07:55:57.389Z,39.7462
2023-04-18T07:56:59.021Z,39.4000
2023-04-18T07:58:00.664Z,135.9462
2023-04-18T07:59:02.385Z,83.2923
2023-04-18T08:00:03.950Z,39.2769
2023-04-18T08:01:05.602Z,69.5308
2023-04-18T08:02:07.284Z,51.4538
2023-04-18T08:03:09.036Z,90.2077
2023-04-18T08:04:10.722Z,226.7077
2023-04-18T08:05:12.234Z,66.7846
2023-04-18T08:06:13.809Z,47.8538
2023-04-18T08:07:15.414Z,58.6385
2023-04-18T08:08:17.115Z,38.2462
2023-04-18T08:09:18.683Z,41.9077
2023-04-18T08:10:21.357Z,47.1538
2023-04-18T08:11:21.978Z,61.5077
2023-04-18T08:12:23.582Z,42.3846
2023-04-18T08:13:25.250Z,70.6923
2023-04-18T08:14:26.856Z,59.8077
2023-04-18T08:15:28.509Z,41.5077
2023-04-18T08:16:30.197Z,150.2615
2023-04-18T08:17:31.835Z,59.7692
2023-04-18T08:18:33.452Z,34.5231
2023-04-18T08:19:35.045Z,59.3462
2023-04-18T08:20:36.703Z,73.7846
2023-04-18T08:21:38.298Z,80.1385
2023-04-18T08:22:53.830Z,108.7923
2023-04-18T08:23:41.638Z,94.9692
2023-04-18T08:25:01.052Z,26.2538
2023-04-18T08:25:44.818Z,38.4462
2023-04-18T08:26:46.524Z,48.1385
2023-04-18T08:27:48.147Z,32.1846
2023-04-18T08:28:49.773Z,33.9923
2023-04-18T08:29:51.396Z,80.8231
2023-04-18T08:30:53.053Z,22.7385
2023-04-18T08:31:54.690Z,66.2308
2023-04-18T08:32:56.301Z,138.3539
2023-04-18T08:33:57.936Z,151.8462
2023-04-18T08:34:59.570Z,115.1154
2023-04-18T08:36:01.235Z,76.5385
2023-04-18T08:37:02.827Z,38.9692
2023-04-18T08:38:04.452Z,33.7846
2023-04-18T08:39:06.167Z,23.6385
2023-04-18T08:40:07.783Z,16.1692
2023-04-18T08:41:09.376Z,19.2000
2023-04-18T08:42:11.049Z,16.8308
2023-04-18T08:43:12.657Z,26.1769
2023-04-18T08:44:14.552Z,46.6077
2023-04-18T08:45:15.946Z,29.0923
2023-04-18T08:46:17.619Z,63.0385
2023-04-18T08:47:19.203Z,26.4077
2023-04-18T08:48:20.833Z,22.3000
2023-04-18T08:49:22.499Z,48.1692
2023-04-18T08:50:24.181Z,57.6462
2023-04-18T08:51:25.753Z,32.0923
2023-04-18T08:52:27.410Z,24.3308
2023-04-18T08:53:28.998Z,90.1538
2023-04-18T08:54:30.708Z,27.1538
2023-04-18T08:55:32.289Z,41.9308
2023-04-18T08:56:34.038Z,31.6462
2023-04-18T08:57:35.585Z,48.4231
2023-04-18T08:58:37.322Z,73.7462
2023-04-18T08:59:39.074Z,42.8615
2023-04-18T09:00:40.550Z,44.5538
2023-04-18T09:01:42.245Z,58.0538
2023-04-18T09:02:44.270Z,45.6846
2023-04-18T09:03:45.465Z,90.1846
2023-04-18T09:04:47.128Z,29.6923
2023-04-18T09:05:48.735Z,34.3615
2023-04-18T09:06:50.369Z,29.9308
2023-04-18T09:07:52.042Z,135.5846
2023-04-18T09:08:53.644Z,94.7615
2023-04-18T09:09:55.286Z,50.6231
2023-04-18T09:10:56.889Z,35.0538
2023-04-18T09:11:58.527Z,38.2154
2023-04-18T09:13:00.134Z,88.0615
2023-04-18T09:14:01.776Z,20.2692
2023-04-18T09:15:03.442Z,49.1692
2023-04-18T09:16:05.065Z,49.2923
2023-04-18T09:17:06.878Z,14.2692
2023-04-18T09:18:08.396Z,26.3769
2023-04-18T09:19:09.941Z,45.7077
2023-04-18T09:20:11.627Z,43.4231
2023-04-18T09:21:13.203Z,54.5154
2023-04-18T09:22:14.852Z,75.3308
2023-04-18T09:23:16.483Z,33.9308
2023-04-18T09:24:18.191Z,32.8692
2023-04-18T09:25:19.791Z,30.8077
2023-04-18T09:26:21.277Z,38.7000
2023-04-18T09:27:22.964Z,16.5538
2023-04-18T09:28:24.576Z,22.0846
2023-04-18T09:29:26.224Z,27.9231
2023-04-18T09:30:27.912Z,76.9154
2023-04-18T09:31:29.503Z,106.7231
2023-04-18T09:32:31.171Z,74.2231
2023-04-18T09:33:32.772Z,109.3923
2023-04-18T09:34:34.376Z,26.8231
2023-04-18T09:35:36.049Z,57.4538
2023-04-18T09:36:37.741Z,34.1385
2023-04-18T09:37:39.341Z,35.1615
2023-04-18T09:38:41.204Z,44.6615
2023-04-18T09:39:42.633Z,18.1077
2023-04-18T09:40:44.459Z,24.5692
2023-04-18T09:41:45.905Z,22.5077
2023-04-18T09:42:47.499Z,36.0923
2023-04-18T09:43:49.194Z,25.6615
2023-04-18T09:44:50.729Z,25.5231
2023-04-18T09:45:52.416Z,22.2538
2023-04-18T09:46:54.013Z,32.0000
2023-04-18T09:47:55.695Z,22.6923
2023-04-18T09:48:57.264Z,16.8538
2023-04-18T09:49:58.896Z,16.6769
2023-04-18T09:51:00.568Z,17.8615
2023-04-18T09:52:02.146Z,17.8308
2023-04-18T09:53:03.832Z,24.8846
2023-04-18T09:54:05.442Z,22.2077
2023-04-18T09:55:07.061Z,15.8846
2023-04-18T09:56:08.737Z,16.3154
2023-04-18T09:57:10.340Z,16.9538
2023-04-18T09:58:11.946Z,18.7846
2023-04-18T09:59:13.788Z,15.6000
2023-04-18T10:00:15.235Z,16.0615
2023-04-18T10:01:16.920Z,14.9154
2023-04-18T10:02:19.353Z,14.9615
2023-04-18T10:03:20.326Z,15.5769
2023-04-18T10:04:21.958Z,14.4000
2023-04-18T10:05:23.514Z,14.3231
2023-04-18T10:06:25.211Z,16.0538
2023-04-18T10:07:26.673Z,16.2462
2023-04-18T10:08:28.293Z,16.1538
2023-04-18T10:09:29.948Z,15.4615
2023-04-18T10:10:31.578Z,15.0231
2023-04-18T10:11:33.231Z,13.3923
2023-04-18T10:12:34.852Z,14.2000
2023-04-18T10:13:36.490Z,16.4846
2023-04-18T10:14:38.111Z,16.3077
2023-04-18T10:15:40.749Z,14.3462
2023-04-18T10:16:41.499Z,13.7077
2023-04-18T10:17:56.012Z,15.6077
2023-04-18T10:18:44.706Z,16.0462
2023-04-18T10:19:46.287Z,13.4154
2023-04-18T10:20:47.955Z,14.2615
2023-04-18T10:21:49.607Z,15.2308
2023-04-18T10:22:51.252Z,14.2077
2023-04-18T10:23:52.880Z,13.2154
2023-04-18T10:24:54.540Z,13.7231
2023-04-18T10:25:56.148Z,14.9769
2023-04-18T10:26:57.827Z,13.8231
2023-04-18T10:27:59.407Z,13.8231
2023-04-18T10:29:01.056Z,17.1308
2023-04-18T10:30:02.688Z,15.5692
2023-04-18T10:31:04.412Z,16.6846
2023-04-18T10:32:06.012Z,17.9154
2023-04-18T10:33:10.592Z,16.8077
2023-04-18T10:34:09.251Z,17.9769
2023-04-18T10:35:10.912Z,16.3000
2023-04-18T10:36:12.537Z,16.7154
2023-04-18T10:37:14.218Z,17.4615
2023-04-18T10:38:15.823Z,17.8462
2023-04-18T10:39:17.493Z,18.0077
2023-04-18T10:40:19.103Z,16.9154
2023-04-18T10:41:20.752Z,15.8846
2023-04-18T10:42:22.561Z,17.8846
2023-04-18T10:43:24.118Z,17.1692
2023-04-18T10:44:25.748Z,17.6308
2023-04-18T10:45:27.387Z,19.5692
2023-04-18T10:46:32.458Z,18.6769
2023-04-18T10:47:30.860Z,18.9615
2023-04-18T10:48:32.329Z,15.5846
2023-04-18T10:49:33.959Z,16.2615
2023-04-18T10:50:35.615Z,15.5231
2023-04-18T10:51:37.321Z,16.8154
2023-04-18T10:52:38.976Z,18.4308
2023-04-18T10:53:40.559Z,18.3385
2023-04-18T10:54:42.167Z,17.3538
2023-04-18T10:55:43.806Z,22.6308
2023-04-18T10:56:45.509Z,19.6692
2023-04-18T10:57:47.299Z,19.7154
2023-04-18T10:58:48.791Z,22.8385
2023-04-18T10:59:50.442Z,18.6615
2023-04-18T11:00:52.084Z,20.3846
2023-04-18T11:01:53.783Z,19.6923
2023-04-18T11:02:55.489Z,24.5846
2023-04-18T11:03:57.170Z,55.2154
2023-04-18T11:04:58.597Z,20.7385
2023-04-18T11:06:00.245Z,21.1538
2023-04-18T11:07:01.889Z,19.2000
2023-04-18T11:08:03.669Z,16.4692
2023-04-18T11:09:05.139Z,15.9231
2023-04-18T11:10:06.806Z,17.6231
2023-04-18T11:11:08.457Z,19.4231
2023-04-18T11:12:10.069Z,18.6615
2023-04-18T11:13:11.735Z,25.7154
2023-04-18T11:14:13.523Z,17.9769
2023-04-18T11:15:14.984Z,18.0000
2023-04-18T11:16:16.674Z,17.0462
2023-04-18T11:17:18.289Z,20.0615
2023-04-18T11:18:19.960Z,36.0385
2023-04-18T11:19:21.528Z,20.6462
2023-04-18T11:20:23.095Z,27.3692
2023-04-18T11:21:24.757Z,18.4462
2023-04-18T11:22:26.360Z,16.8538
2023-04-18T11:23:28.100Z,20.2000
2023-04-18T11:24:29.659Z,22.1385
2023-04-18T11:25:31.302Z,24.2692
2023-04-18T11:26:32.940Z,21.3692
2023-04-18T11:27:34.572Z,17.7462
2023-04-18T11:28:36.260Z,22.5308
2023-04-18T11:29:37.877Z,15.3615
2023-04-18T11:30:39.528Z,14.8154
2023-04-18T11:31:41.299Z,15.0077
2023-04-18T11:32:42.867Z,16.0923
2023-04-18T11:33:44.457Z,17.4692
2023-04-18T11:34:46.067Z,21.1923
2023-04-18T11:35:47.727Z,17.2308
2023-04-18T11:36:49.320Z,19.1462
2023-04-18T11:37:50.967Z,17.1000
2023-04-18T11:38:52.651Z,17.9231
2023-04-18T11:39:54.291Z,17.4692
2023-04-18T11:40:56.045Z,14.5769
2023-04-18T11:41:57.556Z,15.2769
2023-04-18T11:42:59.189Z,16.0692
2023-04-18T11:44:00.844Z,19.8769
2023-04-18T11:45:02.456Z,23.3923
2023-04-18T11:46:04.129Z,20.1538
2023-04-18T11:47:05.761Z,17.8154
2023-04-18T11:48:07.405Z,14.8000
2023-04-18T11:49:09.069Z,14.6538
2023-04-18T11:50:10.676Z,25.1462
2023-04-18T11:51:12.320Z,54.6692
2023-04-18T11:52:13.927Z,28.4615
2023-04-18T11:53:15.575Z,16.2154
2023-04-18T11:54:17.237Z,16.6077
2023-04-18T11:55:18.859Z,31.5538
2023-04-18T11:56:20.493Z,30.6000
2023-04-18T11:57:22.130Z,21.7077
2023-04-18T11:58:23.922Z,28.6846
2023-04-18T11:59:25.581Z,21.5769
2023-04-18T12:00:27.065Z,21.9769
2023-04-18T12:01:28.749Z,16.3000
2023-04-18T12:02:30.392Z,14.3538
2023-04-18T12:03:32.128Z,13.2462
2023-04-18T12:04:33.801Z,12.9308
2023-04-18T12:05:35.397Z,17.0000
2023-04-18T12:06:36.900Z,13.8077
2023-04-18T12:07:38.539Z,20.1077
2023-04-18T12:08:40.192Z,22.0769
2023-04-18T12:09:42.679Z,22.8000
2023-04-18T12:10:43.461Z,17.0846
2023-04-18T12:11:45.104Z,13.2154
2023-04-18T12:12:46.974Z,10.7615
2023-04-18T12:13:48.371Z,13.6538
2023-04-18T12:14:50.201Z,18.9769
2023-04-18T12:15:51.721Z,13.0615
2023-04-18T12:16:53.286Z,10.4462
2023-04-18T12:17:54.923Z,11.1154
2023-04-18T12:18:56.553Z,13.3154
2023-04-18T12:19:58.231Z,11.7462
2023-04-18T12:20:59.827Z,12.3000
2023-04-18T12:22:01.522Z,11.1538
2023-04-18T12:23:03.152Z,13.1846
2023-04-18T12:24:04.785Z,11.3154
2023-04-18T12:25:06.429Z,12.9462
2023-04-18T12:26:08.161Z,18.2615
2023-04-18T12:27:09.779Z,12.4846
2023-04-18T12:28:11.427Z,12.5462
2023-04-18T12:29:13.360Z,20.1308
2023-04-18T12:30:14.804Z,21.8846
2023-04-18T12:31:16.374Z,9.7231
2023-04-18T12:32:17.941Z,10.9692